Map

Track Data

SID SEASON NUMBER BASIN SUBBASIN NAME ISO_TIME NATURE LAT LON WMO_WIND WMO_PRES WMO_AGENCY TRACK_TYPE DIST2LAND LANDFALL IFLAG USA_AGENCY USA_ATCF_ID USA_LAT USA_LON USA_RECORD USA_STATUS USA_WIND USA_PRES USA_SSHS USA_R34_NE USA_R34_SE USA_R34_SW USA_R34_NW USA_R50_NE USA_R50_SE USA_R50_SW USA_R50_NW USA_R64_NE USA_R64_SE USA_R64_SW USA_R64_NW USA_POCI USA_ROCI USA_RMW USA_EYE TOKYO_LAT TOKYO_LON TOKYO_GRADE TOKYO_WIND TOKYO_PRES TOKYO_R50_DIR TOKYO_R50_LONG TOKYO_R50_SHORT TOKYO_R30_DIR TOKYO_R30_LONG TOKYO_R30_SHORT TOKYO_LAND CMA_LAT CMA_LON CMA_CAT CMA_WIND CMA_PRES HKO_LAT HKO_LON HKO_CAT HKO_WIND HKO_PRES NEWDELHI_LAT NEWDELHI_LON NEWDELHI_GRADE NEWDELHI_WIND NEWDELHI_PRES NEWDELHI_CI NEWDELHI_DP NEWDELHI_POCI REUNION_LAT REUNION_LON REUNION_TYPE REUNION_WIND REUNION_PRES REUNION_TNUM REUNION_CI REUNION_RMW REUNION_R34_NE REUNION_R34_SE REUNION_R34_SW REUNION_R34_NW REUNION_R50_NE REUNION_R50_SE REUNION_R50_SW REUNION_R50_NW REUNION_R64_NE REUNION_R64_SE REUNION_R64_SW REUNION_R64_NW BOM_LAT BOM_LON BOM_TYPE BOM_WIND BOM_PRES BOM_TNUM BOM_CI BOM_RMW BOM_R34_NE BOM_R34_SE BOM_R34_SW BOM_R34_NW BOM_R50_NE BOM_R50_SE BOM_R50_SW BOM_R50_NW BOM_R64_NE BOM_R64_SE BOM_R64_SW BOM_R64_NW BOM_ROCI BOM_POCI BOM_EYE BOM_POS_METHOD BOM_PRES_METHOD NADI_LAT NADI_LON NADI_CAT NADI_WIND NADI_PRES WELLINGTON_LAT WELLINGTON_LON WELLINGTON_WIND WELLINGTON_PRES DS824_LAT DS824_LON DS824_STAGE DS824_WIND DS824_PRES TD9636_LAT TD9636_LON TD9636_STAGE TD9636_WIND TD9636_PRES TD9635_LAT TD9635_LON TD9635_WIND TD9635_PRES TD9635_ROCI NEUMANN_LAT NEUMANN_LON NEUMANN_CLASS NEUMANN_WIND NEUMANN_PRES MLC_LAT MLC_LON MLC_CLASS MLC_WIND MLC_PRES USA_GUST BOM_GUST BOM_GUST_PER REUNION_GUST REUNION_GUST_PER USA_SEAHGT USA_SEARAD_NE USA_SEARAD_SE USA_SEARAD_SW USA_SEARAD_NW STORM_SPEED STORM_DIR
1988253N12306 1988 74 NA NA GILBERT 1988-09-08 18:00:00 TS 12.0000 -54.0000 25 1008 hurdat_atl main 683 665 O_____________ hurdat_atl AL081988 12.0000 -54.0000 TD 25 1008 -1 17 295
1988253N12306 1988 74 NA NA GILBERT 1988-09-08 21:00:00 TS 12.3630 -54.8095 main 674 629 P_____________ AL081988 12.3630 -54.8095 TD 25 1007 -1 17 294
1988253N12306 1988 74 NA NA GILBERT 1988-09-09 00:00:00 TS 12.7000 -55.6000 25 1007 hurdat_atl main 629 572 O_____________ hurdat_atl AL081988 12.7000 -55.6000 TD 25 1007 -1 16 293
1988253N12306 1988 74 NA NA GILBERT 1988-09-09 03:00:00 TS 12.9997 -56.3578 main 563 514 P_____________ AL081988 12.9997 -56.3578 TD 27 1006 -1 16 292
1988253N12306 1988 74 NA NA GILBERT 1988-09-09 06:00:00 TS 13.3000 -57.1000 30 1006 hurdat_atl main 514 476 O_____________ hurdat_atl AL081988 13.3000 -57.1000 TD 30 1006 -1 16 294
1988253N12306 1988 74 NA NA GILBERT 1988-09-09 09:00:00 TS 13.6573 -57.8500 main 483 449 P_____________ AL081988 13.6573 -57.8500 TD 30 1005 -1 16 296
1988253N12306 1988 74 NA NA GILBERT 1988-09-09 12:00:00 TS 14.0000 -58.6000 30 1005 hurdat_atl main 452 438 O_____________ hurdat_atl AL081988 14.0000 -58.6000 TD 30 1005 -1 16 293
1988253N12306 1988 74 NA NA GILBERT 1988-09-09 15:00:00 TS 14.2798 -59.3576 main 438 430 P_____________ AL081988 14.2798 -59.3576 TD 32 1004 -1 15 289
1988253N12306 1988 74 NA CS GILBERT 1988-09-09 18:00:00 TS 14.5000 -60.1000 35 1004 hurdat_atl main 436 432 O_____________ hurdat_atl AL081988 14.5000 -60.1000 TS 35 1004 0 15 286
1988253N12306 1988 74 NA CS GILBERT 1988-09-09 21:00:00 TS 14.6723 -60.8152 main 448 447 P_____________ AL081988 14.6723 -60.8152 TS 37 1003 0 14 282
1988253N12306 1988 74 NA CS GILBERT 1988-09-10 00:00:00 TS 14.8000 -61.5000 40 1002 hurdat_atl main 459 459 O_____________ hurdat_atl AL081988 14.8000 -61.5000 TS 40 1002 0 13 280
1988253N12306 1988 74 NA CS GILBERT 1988-09-10 03:00:00 TS 14.8998 -62.1577 main 470 463 P_____________ AL081988 14.8998 -62.1577 TS 42 1000 0 13 279
1988253N12306 1988 74 NA CS GILBERT 1988-09-10 06:00:00 TS 15.0000 -62.8000 45 998 hurdat_atl main 463 413 O_____________ hurdat_atl AL081988 15.0000 -62.8000 TS 45 998 0 13 281
1988253N12306 1988 74 NA CS GILBERT 1988-09-10 09:00:00 TS 15.1348 -63.4501 main 406 352 P_____________ AL081988 15.1348 -63.4501 TS 47 996 0 13 283
1988253N12306 1988 74 NA CS GILBERT 1988-09-10 12:00:00 TS 15.3000 -64.1000 50 995 hurdat_atl main 352 303 O_____________ hurdat_atl AL081988 15.3000 -64.1000 TS 50 995 0 13 287
1988253N12306 1988 74 NA CS GILBERT 1988-09-10 15:00:00 TS 15.5072 -64.7424 main 303 260 P_____________ AL081988 15.5072 -64.7424 TS 52 993 0 13 288
1988253N12306 1988 74 NA CS GILBERT 1988-09-10 18:00:00 TS 15.7000 -65.4000 55 992 hurdat_atl main 260 235 O_____________ hurdat_atl AL081988 15.7000 -65.4000 TS 55 992 0 14 283
1988253N12306 1988 74 NA CS GILBERT 1988-09-10 21:00:00 TS 15.8075 -66.1077 main 235 224 P_____________ AL081988 15.8075 -66.1077 TS 60 990 0 14 278
1988253N12306 1988 74 NA CS GILBERT 1988-09-11 00:00:00 TS 15.9000 -66.8000 65 989 hurdat_atl main 224 201 O_____________ hurdat_atl AL081988 15.9000 -66.8000 HU 65 989 1 13 282
1988253N12306 1988 74 NA CS GILBERT 1988-09-11 03:00:00 TS 16.0720 -67.3923 main 202 197 P_____________ AL081988 16.0720 -67.3923 HU 72 985 1 12 285
1988253N12306 1988 74 NA CS GILBERT 1988-09-11 06:00:00 TS 16.2000 -68.0000 80 982 hurdat_atl main 208 208 O_____________ hurdat_atl AL081988 16.2000 -68.0000 HU 80 982 1 13 274
1988253N12306 1988 74 NA CS GILBERT 1988-09-11 09:00:00 TS 16.1652 -68.7504 main 223 223 P_____________ AL081988 16.1652 -68.7504 HU 87 978 2 14 266
1988253N12306 1988 74 NA CS GILBERT 1988-09-11 12:00:00 TS 16.1000 -69.5000 95 975 hurdat_atl main 246 217 O_____________ hurdat_atl AL081988 16.1000 -69.5000 HU 95 975 2 13 267
1988253N12306 1988 74 NA CS GILBERT 1988-09-11 15:00:00 TS 16.0971 -70.1152 main 217 173 P_____________ AL081988 16.0971 -70.1152 HU 97 972 3 12 275
1988253N12306 1988 74 NA CS GILBERT 1988-09-11 18:00:00 TS 16.2000 -70.7000 100 970 hurdat_atl main 173 123 O_____________ hurdat_atl AL081988 16.2000 -70.7000 HU 100 970 3 12 288
1988253N12306 1988 74 NA CS GILBERT 1988-09-11 21:00:00 TS 16.4696 -71.3124 main 123 104 P_____________ AL081988 16.4696 -71.3124 HU 102 967 3 14 296
1988253N12306 1988 74 NA CS GILBERT 1988-09-12 00:00:00 TS 16.8000 -72.0000 105 964 hurdat_atl main 109 109 O_____________ hurdat_atl AL081988 16.8000 -72.0000 HU 105 964 3 16 293
1988253N12306 1988 74 NA CS GILBERT 1988-09-12 03:00:00 TS 17.0726 -72.8275 main 111 79 P_____________ AL081988 17.0726 -72.8275 HU 107 963 3 17 287
1988253N12306 1988 74 NA CS GILBERT 1988-09-12 06:00:00 TS 17.3000 -73.7000 110 962 hurdat_atl main 79 67 O_____________ hurdat_atl AL081988 17.3000 -73.7000 HU 110 962 3 16 284
1988253N12306 1988 74 NA CS GILBERT 1988-09-12 09:00:00 TS 17.4690 -74.4912 main 84 84 P_____________ AL081988 17.4690 -74.4912 HU 110 961 3 16 281
1988253N12306 1988 74 NA CS GILBERT 1988-09-12 12:00:00 TS 17.6000 -75.3000 110 960 hurdat_atl main 101 22 O_____________ hurdat_atl AL081988 17.6000 -75.3000 HU 110 960 3 18 277
1988253N12306 1988 74 NA CS GILBERT 1988-09-12 15:00:00 TS 17.6802 -76.3343 main 22 11 P_____________ AL081988 17.6802 -76.3343 HU 112 960 3 17 278
1988253N12306 1988 74 NA CS GILBERT 1988-09-12 17:00:00 TS 17.8000 -76.8000 115 960 hurdat_atl main 15 0 O_____________ hurdat_atl AL081988 17.8000 -76.8000 L HU 115 960 4 12 292
1988253N12306 1988 74 NA CS GILBERT 1988-09-12 18:00:00 TS 17.9000 -76.9000 110 960 hurdat_atl main 0 0 O_____________ hurdat_atl AL081988 17.9000 -76.9000 HU 110 960 3 12 291
1988253N12306 1988 74 NA CS GILBERT 1988-09-12 21:00:00 TS 18.0912 -77.5891 main 0 0 P_____________ AL081988 18.0912 -77.5891 HU 110 960 3 16 281
1988253N12306 1988 74 NA CS GILBERT 1988-09-13 00:00:00 TS 18.2000 -78.5000 110 960 hurdat_atl main 10 10 O_____________ hurdat_atl AL081988 18.2000 -78.5000 HU 110 960 3 15 280
1988253N12306 1988 74 NA CS GILBERT 1988-09-13 03:00:00 TS 18.3493 -79.1152 main 74 74 P_____________ AL081988 18.3493 -79.1152 HU 112 956 3 12 285
1988253N12306 1988 74 NA CS GILBERT 1988-09-13 06:00:00 TS 18.5000 -79.7000 115 952 hurdat_atl main 141 141 O_____________ hurdat_atl AL081988 18.5000 -79.7000 HU 115 952 4 12 283
1988253N12306 1988 74 NA CS GILBERT 1988-09-13 09:00:00 TS 18.6274 -80.3854 main 215 215 P_____________ AL081988 18.6274 -80.3854 HU 120 943 4 14 283
1988253N12306 1988 74 NA CS GILBERT 1988-09-13 12:00:00 TS 18.8000 -81.1000 125 934 hurdat_atl main 292 277 O_____________ hurdat_atl AL081988 18.8000 -81.1000 HU 125 934 4 14 289
1988253N12306 1988 74 NA CS GILBERT 1988-09-13 15:00:00 TS 19.0998 -81.8072 main 277 225 P_____________ AL081988 19.0998 -81.8072 HU 132 919 4 15 294
1988253N12306 1988 74 NA CS GILBERT 1988-09-13 18:00:00 TS 19.4000 -82.5000 140 905 hurdat_atl main 225 202 O_____________ hurdat_atl AL081988 19.4000 -82.5000 HU 140 905 5 14 291
1988253N12306 1988 74 NA CS GILBERT 1988-09-13 21:00:00 TS 19.5795 -83.1429 main 203 203 P_____________ AL081988 19.5795 -83.1429 HU 150 896 5 13 284
1988253N12306 1988 74 NA CS GILBERT 1988-09-14 00:00:00 TS 19.7000 -83.8000 160 888 hurdat_atl main 216 216 O_____________ hurdat_atl AL081988 19.7000 -83.8000 HU 160 888 5 13 279
1988253N12306 1988 74 NA CS GILBERT 1988-09-14 03:00:00 TS 19.7851 -84.5579 main 223 194 P_____________ AL081988 19.7851 -84.5579 HU 157 888 5 14 278
1988253N12306 1988 74 NA CS GILBERT 1988-09-14 06:00:00 TS 19.9000 -85.3000 155 889 hurdat_atl main 194 130 O_____________ hurdat_atl AL081988 19.9000 -85.3000 HU 155 889 5 13 284
1988253N12306 1988 74 NA CS GILBERT 1988-09-14 09:00:00 TS 20.1191 -85.9409 main 130 61 P_____________ AL081988 20.1191 -85.9409 HU 150 890 5 12 294
1988253N12306 1988 74 NA CS GILBERT 1988-09-14 12:00:00 TS 20.4000 -86.5000 145 892 hurdat_atl main 61 10 O_____________ hurdat_atl AL081988 20.4000 -86.5000 HU 145 892 5 12 300
1988253N12306 1988 74 NA CS GILBERT 1988-09-14 15:00:00 TS 20.7000 -87.0000 140 900 hurdat_atl main 10 0 O_____________ hurdat_atl AL081988 20.7000 -87.0000 L HU 140 900 5 13 292
1988253N12306 1988 74 NA NA GILBERT 1988-09-14 18:00:00 TS 20.9000 -87.8000 130 925 hurdat_atl main 0 0 O_____________ hurdat_atl AL081988 20.9000 -87.8000 HU 130 925 4 16 285
1988253N12306 1988 74 NA NA GILBERT 1988-09-14 21:00:00 TS 21.1070 -88.6738 main 0 0 P_____________ AL081988 21.1070 -88.6738 HU 115 934 4 16 284
1988253N12306 1988 74 NA GM GILBERT 1988-09-15 00:00:00 TS 21.3000 -89.5000 100 944 hurdat_atl main 11 11 O_____________ hurdat_atl AL081988 21.3000 -89.5000 HU 100 944 3 14 284
1988253N12306 1988 74 NA GM GILBERT 1988-09-15 03:00:00 TS 21.4570 -90.1528 main 44 44 P_____________ AL081988 21.4570 -90.1528 HU 95 946 2 12 285
1988253N12306 1988 74 NA GM GILBERT 1988-09-15 06:00:00 TS 21.6000 -90.7000 90 949 hurdat_atl main 69 69 O_____________ hurdat_atl AL081988 21.6000 -90.7000 HU 90 949 2 10 287
1988253N12306 1988 74 NA GM GILBERT 1988-09-15 09:00:00 TS 21.7571 -91.2076 main 121 121 P_____________ AL081988 21.7571 -91.2076 HU 87 949 2 10 288
1988253N12306 1988 74 NA GM GILBERT 1988-09-15 12:00:00 TS 21.9000 -91.7000 85 950 hurdat_atl main 170 170 O_____________ hurdat_atl AL081988 21.9000 -91.7000 HU 85 950 2 10 284
1988253N12306 1988 74 NA GM GILBERT 1988-09-15 15:00:00 TS 21.9925 -92.2503 main 229 229 P_____________ AL081988 21.9925 -92.2503 HU 87 950 2 10 281
1988253N12306 1988 74 NA GM GILBERT 1988-09-15 18:00:00 TS 22.1000 -92.8000 90 950 hurdat_atl main 281 281 O_____________ hurdat_atl AL081988 22.1000 -92.8000 HU 90 950 2 10 287
1988253N12306 1988 74 NA GM GILBERT 1988-09-15 21:00:00 TS 22.2848 -93.3075 main 337 337 P_____________ AL081988 22.2848 -93.3075 HU 95 949 2 10 293
1988253N12306 1988 74 NA GM GILBERT 1988-09-16 00:00:00 TS 22.5000 -93.8000 100 949 hurdat_atl main 374 332 O_____________ hurdat_atl AL081988 22.5000 -93.8000 HU 100 949 3 10 293
1988253N12306 1988 74 NA GM GILBERT 1988-09-16 03:00:00 TS 22.6698 -94.2931 main 332 295 P_____________ AL081988 22.6698 -94.2931 HU 105 947 3 10 293
1988253N12306 1988 74 NA GM GILBERT 1988-09-16 06:00:00 TS 22.9000 -94.8000 110 946 hurdat_atl main 295 255 O_____________ hurdat_atl AL081988 22.9000 -94.8000 HU 110 946 3 12 304
1988253N12306 1988 74 NA GM GILBERT 1988-09-16 09:00:00 TS 23.3149 -95.3419 main 255 193 P_____________ AL081988 23.3149 -95.3419 HU 112 947 3 13 308
1988253N12306 1988 74 NA GM GILBERT 1988-09-16 12:00:00 TS 23.7000 -95.9000 115 948 hurdat_atl main 193 142 O_____________ hurdat_atl AL081988 23.7000 -95.9000 HU 115 948 4 11 297
1988253N12306 1988 74 NA GM GILBERT 1988-09-16 15:00:00 TS 23.8195 -96.4417 main 142 81 P_____________ AL081988 23.8195 -96.4417 HU 115 949 4 10 281
1988253N12306 1988 74 NA GM GILBERT 1988-09-16 18:00:00 TS 23.9000 -97.0000 115 950 hurdat_atl main 81 20 O_____________ hurdat_atl AL081988 23.9000 -97.0000 HU 115 950 4 11 285
1988253N12306 1988 74 NA GM GILBERT 1988-09-16 21:00:00 TS 24.1105 -97.5983 main 20 0 P_____________ AL081988 24.1105 -97.5983 HU 111 953 3 12 292
1988253N12306 1988 74 NA NA GILBERT 1988-09-16 22:00:00 TS 24.2000 -97.8000 110 955 hurdat_atl main 0 0 O_____________ hurdat_atl AL081988 24.2000 -97.8000 L HU 110 955 3 12 298
1988253N12306 1988 74 NA NA GILBERT 1988-09-17 00:00:00 TS 24.4000 -98.2000 80 964 hurdat_atl main 0 0 O_____________ hurdat_atl AL081988 24.4000 -98.2000 HU 80 964 1 12 297
1988253N12306 1988 74 NA NA GILBERT 1988-09-17 03:00:00 TS 24.6359 -98.7554 main 0 0 P_____________ AL081988 24.6359 -98.7554 HU 65 976 1 11 292
1988253N12306 1988 74 NA NA GILBERT 1988-09-17 06:00:00 TS 24.8000 -99.3000 50 988 hurdat_atl main 0 0 O_____________ hurdat_atl AL081988 24.8000 -99.3000 TS 50 988 0 11 285
1988253N12306 1988 74 NA NA GILBERT 1988-09-17 09:00:00 TS 24.8997 -99.8781 main 0 0 P_____________ AL081988 24.8997 -99.8781 TS 42 992 0 11 280
1988253N12306 1988 74 NA NA GILBERT 1988-09-17 12:00:00 TS 25.0000 -100.500 35 996 hurdat_atl main 0 0 O_____________ hurdat_atl AL081988 25.0000 -100.500 TS 35 996 0 12 283
1988253N12306 1988 74 NA NA GILBERT 1988-09-17 15:00:00 TS 25.1700 -101.193 main 0 0 P_____________ AL081988 25.1700 -101.193 TS 32 998 -1 13 288
1988253N12306 1988 74 NA NA GILBERT 1988-09-17 18:00:00 TS 25.4000 -101.900 30 1000 hurdat_atl main 0 0 O_____________ hurdat_atl AL081988 25.4000 -101.900 TD 30 1000 -1 14 289
1988253N12306 1988 74 NA NA GILBERT 1988-09-17 21:00:00 TS 25.6102 -102.618 main 0 0 P_____________ AL081988 25.6102 -102.618 TD 30 1001 -1 13 297
1988253N12306 1988 74 NA NA GILBERT 1988-09-18 00:00:00 TS 26.0000 -103.200 30 1002 hurdat_atl main 0 0 O_____________ hurdat_atl AL081988 26.0000 -103.200 TD 30 1002 -1 14 321
1988253N12306 1988 74 NA NA GILBERT 1988-09-18 03:00:00 TS 26.7169 -103.628 main 0 0 P_____________ AL081988 26.7169 -103.628 TD 30 1003 -1 17 344
1988253N12306 1988 74 NA NA GILBERT 1988-09-18 06:00:00 TS 27.6000 -103.700 30 1004 hurdat_atl main 0 0 O_____________ hurdat_atl AL081988 27.6000 -103.700 TD 30 1004 -1 17 10
1988253N12306 1988 74 NA NA GILBERT 1988-09-18 09:00:00 TS 28.4053 -103.286 main 0 0 P_____________ AL081988 28.4053 -103.286 TD 27 1003 -1 20 30
1988253N12306 1988 74 NA NA GILBERT 1988-09-18 12:00:00 TS 29.3000 -102.600 25 1003 hurdat_atl main 0 0 O_____________ hurdat_atl AL081988 29.3000 -102.600 TD 25 1003 -1 23 30
1988253N12306 1988 74 NA NA GILBERT 1988-09-18 15:00:00 TS 30.3996 -101.987 main 0 0 P_____________ AL081988 30.3996 -101.987 TD 25 1003 -1 25 27
1988253N12306 1988 74 NA NA GILBERT 1988-09-18 18:00:00 TS 31.5000 -101.300 25 1003 hurdat_atl main 0 0 O_____________ hurdat_atl AL081988 31.5000 -101.300 TD 25 1003 -1 23 33
1988253N12306 1988 74 NA NA GILBERT 1988-09-18 21:00:00 TS 32.3193 -100.548 main 0 0 P_____________ AL081988 32.3193 -100.548 TD 25 1002 -1 22 38
1988253N12306 1988 74 NA NA GILBERT 1988-09-19 00:00:00 TS 33.2000 -99.7000 25 1002 hurdat_atl main 0 0 O_____________ hurdat_atl AL081988 33.2000 -99.7000 TD 25 1002 -1 26 32
1988253N12306 1988 74 NA NA GILBERT 1988-09-19 03:00:00 TS 34.4785 -98.9116 main 0 0 P_____________ AL081988 34.4785 -98.9116 TD 25 1001 -1 31 32
1988253N12306 1988 74 NA NA GILBERT 1988-09-19 06:00:00 TS 35.8000 -97.7000 25 1001 hurdat_atl main 0 0 O_____________ hurdat_atl AL081988 35.8000 -97.7000 TD 25 1001 -1 36 50
1988253N12306 1988 74 NA NA GILBERT 1988-09-19 09:00:00 TS 36.7666 -95.5457 main 0 0 P_____________ AL081988 36.7666 -95.5457 TD 25 1000 -1 41 62
1988253N12306 1988 74 NA NA GILBERT 1988-09-19 12:00:00 TS 37.7000 -93.2000 25 999 hurdat_atl main 0 0 O_____________ hurdat_atl AL081988 37.7000 -93.2000 TD 25 999 -1 38 57
1988253N12306 1988 74 NA NA GILBERT 1988-09-19 15:00:00 TS 38.8458 -91.4569 main 0 0 P_____________ AL081988 38.8458 -91.4569 TD 25 998 -1 36 46
1988253N12306 1988 74 NA NA GILBERT 1988-09-19 18:00:00 ET 40.2000 -89.9000 25 998 hurdat_atl main 0 0 O_____________ hurdat_atl AL081988 40.2000 -89.9000 EX 25 998 -4 38 40
1988253N12306 1988 74 NA NA GILBERT 1988-09-19 21:00:00 ET 41.7524 -88.2620 main 0 0 P_____________ AL081988 41.7524 -88.2620 EX 25 996 -4 41 38
1988253N12306 1988 74 NA NA GILBERT 1988-09-20 00:00:00 ET 43.4000 -86.5000 25 995 hurdat_atl main 0 O_____________ hurdat_atl AL081988 43.4000 -86.5000 EX 25 995 -4 42 38

About IBTrACS Database

This database is a web-friendly format of International Best Track Archive for Climate Stewardship (IBTrACS), a global best track data archive curated by NOAA dating back to 1842.

Updated: 2021-12-06